Time;durP1;ratioP1;P1;durP2;ratioP2;P2;SDS_P1;SDS_P2;PMS_P1;PMS_P2;Temp;Humidity;BMP_temperature;BMP_pressure;BME280_temperature;BME280_humidity;BME280_pressure;Samples;Min_cycle;Max_cycle;Signal;HPM_P1;HPM_P2
2022/05/27 00:00:05;;;;;;;2.22;1.35;;;21.80;99.90;;;;;;4209253;28;20264;-75
2022/05/27 00:02:08;;;;;;;2.78;1.10;;;21.70;99.90;;;;;;4204982;28;20259;-76
2022/05/27 00:04:11;;;;;;;1.67;1.00;;;21.70;99.90;;;;;;4207364;28;20658;-75
2022/05/27 00:06:14;;;;;;;2.53;1.25;;;21.70;99.90;;;;;;4208290;28;20762;-76
2022/05/27 00:08:16;;;;;;;2.50;1.30;;;21.70;99.90;;;;;;4208689;28;20223;-75
2022/05/27 00:10:19;;;;;;;1.98;1.10;;;21.70;99.90;;;;;;4208289;28;20288;-75
2022/05/27 00:12:21;;;;;;;4.38;1.52;;;21.70;99.90;;;;;;4208948;28;20229;-76
2022/05/27 00:14:24;;;;;;;2.45;1.48;;;21.70;99.90;;;;;;4208545;28;20210;-75
2022/05/27 00:16:28;;;;;;;1.98;1.20;;;21.70;99.90;;;;;;4208753;28;20218;-76
2022/05/27 00:18:30;;;;;;;1.50;0.90;;;21.70;99.90;;;;;;4208432;28;20210;-76
2022/05/27 00:20:34;;;;;;;2.08;1.20;;;21.70;99.90;;;;;;4208154;28;20260;-75
2022/05/27 00:22:36;;;;;;;1.88;1.17;;;21.70;99.90;;;;;;4209075;28;20206;-75
2022/05/27 00:24:39;;;;;;;2.20;1.30;;;21.70;99.90;;;;;;4205644;28;20327;-76
2022/05/27 00:26:41;;;;;;;2.50;1.10;;;21.70;99.90;;;;;;4208864;28;20263;-75
2022/05/27 00:28:43;;;;;;;3.30;1.60;;;21.70;99.90;;;;;;4209239;28;20654;-76
2022/05/27 00:30:45;;;;;;;2.45;1.00;;;21.70;99.90;;;;;;4209062;28;20671;-76
2022/05/27 00:32:48;;;;;;;1.35;0.98;;;21.60;99.90;;;;;;4208994;28;20295;-76
2022/05/27 00:34:50;;;;;;;3.20;1.42;;;21.70;99.90;;;;;;4208571;28;20210;-76
2022/05/27 00:36:54;;;;;;;2.65;1.58;;;21.70;99.90;;;;;;4208736;28;20211;-75
2022/05/27 00:38:57;;;;;;;1.85;0.80;;;21.60;99.90;;;;;;4208665;28;20682;-76
2022/05/27 00:40:59;;;;;;;2.28;1.27;;;21.60;99.90;;;;;;4208384;28;20669;-75
2022/05/27 00:43:02;;;;;;;2.13;1.15;;;21.60;99.90;;;;;;4209255;28;20211;-76
2022/05/27 00:45:05;;;;;;;1.92;1.00;;;21.60;99.90;;;;;;4209346;28;20218;-76
2022/05/27 00:47:10;;;;;;;2.17;1.10;;;21.60;99.90;;;;;;4206484;28;20223;-76
2022/05/27 00:49:17;;;;;;;3.00;1.45;;;21.60;99.90;;;;;;4208873;28;20632;-75
2022/05/27 00:51:23;;;;;;;1.85;1.17;;;21.60;99.90;;;;;;4208719;28;20222;-75
2022/05/27 00:53:34;;;;;;;2.70;1.10;;;21.60;99.90;;;;;;4207448;28;20250;-75
2022/05/27 00:55:44;;;;;;;2.30;1.23;;;21.60;99.90;;;;;;4208642;28;20242;-76
2022/05/27 00:57:49;;;;;;;2.63;1.08;;;21.60;99.90;;;;;;4206991;28;20218;-75
2022/05/27 00:59:57;;;;;;;2.58;1.40;;;21.60;99.90;;;;;;4208147;28;20218;-75
2022/05/27 01:02:00;;;;;;;2.47;1.20;;;21.60;99.90;;;;;;4203781;28;20214;-76
2022/05/27 01:04:04;;;;;;;2.13;1.23;;;21.60;99.90;;;;;;4207335;28;20271;-76
2022/05/27 01:06:06;;;;;;;2.75;1.27;;;21.60;99.90;;;;;;4207197;28;20287;-75
2022/05/27 01:08:10;;;;;;;2.65;1.17;;;21.60;99.90;;;;;;4207298;28;20277;-76
2022/05/27 01:10:17;;;;;;;3.63;1.15;;;21.60;99.90;;;;;;4206012;28;20263;-75
2022/05/27 01:12:44;;;;;;;2.70;1.20;;;21.60;99.90;;;;;;4206334;28;20287;-75
2022/05/27 01:15:01;;;;;;;2.95;1.45;;;21.60;99.90;;;;;;4208875;28;20214;-76
2022/05/27 01:17:11;;;;;;;3.15;1.20;;;21.60;99.90;;;;;;4209573;28;20407;-76
2022/05/27 01:22:42;;;;;;;3.42;1.00;;;21.60;99.90;;;;;;4192647;28;20206;-75
2022/05/27 01:25:08;;;;;;;2.92;1.00;;;21.60;99.90;;;;;;4210143;28;20218;-75
2022/05/27 01:27:33;;;;;;;1.20;0.90;;;21.50;99.90;;;;;;4209990;28;20230;-76
2022/05/27 01:30:17;;;;;;;2.10;0.98;;;21.60;99.90;;;;;;4209655;28;20218;-75
2022/05/27 01:32:27;;;;;;;3.13;1.38;;;21.60;99.90;;;;;;4208439;28;20267;-76
2022/05/27 01:34:36;;;;;;;2.13;1.00;;;21.60;99.90;;;;;;4208995;28;20266;-76
2022/05/27 01:36:45;;;;;;;2.30;1.30;;;21.60;99.90;;;;;;4210124;28;20248;-75
2022/05/27 01:39:05;;;;;;;2.90;1.10;;;21.60;99.90;;;;;;4208925;28;20608;-76
2022/05/27 01:41:13;;;;;;;3.65;0.93;;;21.50;99.90;;;;;;4209629;28;20218;-75
2022/05/27 01:43:20;;;;;;;2.65;1.20;;;21.60;99.90;;;;;;4209731;28;20256;-76
2022/05/27 01:45:28;;;;;;;3.30;1.05;;;21.60;99.90;;;;;;4208866;28;20279;-75
2022/05/27 01:47:36;;;;;;;1.67;1.00;;;21.50;99.90;;;;;;4208658;28;20248;-76
2022/05/27 01:49:43;;;;;;;1.55;1.00;;;21.60;99.90;;;;;;4208202;28;20693;-76
2022/05/27 01:51:51;;;;;;;1.95;1.20;;;21.50;99.90;;;;;;4209405;28;20217;-75
2022/05/27 01:53:57;;;;;;;2.25;1.23;;;21.50;99.90;;;;;;4209799;28;20242;-76
2022/05/27 01:56:06;;;;;;;3.67;1.40;;;21.50;99.90;;;;;;4210758;28;20620;-75
2022/05/27 01:58:13;;;;;;;2.65;1.27;;;21.50;99.90;;;;;;4210370;28;20214;-75
2022/05/27 02:00:21;;;;;;;1.65;1.10;;;21.50;99.90;;;;;;4209304;28;20279;-75
2022/05/27 02:02:28;;;;;;;2.22;1.20;;;21.60;99.90;;;;;;4209302;28;20254;-75
2022/05/27 02:04:36;;;;;;;3.00;1.50;;;21.50;99.90;;;;;;4209487;28;20227;-76
2022/05/27 02:06:44;;;;;;;3.83;1.30;;;21.50;99.90;;;;;;4208904;28;20233;-75
2022/05/27 02:08:54;;;;;;;2.40;1.00;;;21.50;99.90;;;;;;4209190;28;20214;-76
2022/05/27 02:11:01;;;;;;;2.85;1.38;;;21.60;99.90;;;;;;4209740;28;20283;-76
2022/05/27 02:13:11;;;;;;;2.70;1.08;;;21.50;99.90;;;;;;4208871;28;20238;-76
2022/05/27 02:15:17;;;;;;;2.90;1.30;;;21.50;99.90;;;;;;4209904;28;20247;-75
2022/05/27 02:17:23;;;;;;;3.55;1.08;;;21.50;99.90;;;;;;4209069;28;20286;-75
2022/05/27 02:19:31;;;;;;;3.92;1.25;;;21.50;99.90;;;;;;4208698;28;20663;-75
2022/05/27 02:21:39;;;;;;;2.33;1.05;;;21.50;99.90;;;;;;4209625;28;20218;-75
2022/05/27 02:23:48;;;;;;;1.73;1.17;;;21.60;99.90;;;;;;4209303;28;20232;-75
2022/05/27 02:25:52;;;;;;;2.90;1.25;;;21.50;99.90;;;;;;4210133;28;20230;-75
2022/05/27 02:27:58;;;;;;;2.08;1.20;;;21.50;99.90;;;;;;4210152;28;20226;-75
2022/05/27 02:30:05;;;;;;;2.65;1.15;;;21.50;99.90;;;;;;4210674;28;20230;-75
2022/05/27 02:32:11;;;;;;;3.92;1.13;;;21.50;99.90;;;;;;4209794;28;20210;-76
2022/05/27 02:36:41;;;;;;;3.30;1.10;;;21.50;99.90;;;;;;4208699;28;20194;-75
2022/05/27 02:38:44;;;;;;;3.60;1.20;;;21.50;99.90;;;;;;4210189;28;20213;-76
2022/05/27 02:40:57;;;;;;;2.22;1.17;;;21.50;99.90;;;;;;4209026;28;21589;-76
2022/05/27 02:43:10;;;;;;;2.72;1.33;;;21.40;99.90;;;;;;4209975;28;20621;-76
2022/05/27 02:45:22;;;;;;;1.98;1.10;;;21.40;99.90;;;;;;4208691;28;20218;-75
2022/05/27 02:47:30;;;;;;;2.97;1.30;;;21.50;99.90;;;;;;4209724;28;20663;-75
2022/05/27 02:49:41;;;;;;;2.42;1.20;;;21.50;99.90;;;;;;4208901;28;20267;-75
2022/05/27 02:51:51;;;;;;;2.67;1.50;;;21.50;99.90;;;;;;4208934;28;20218;-75
2022/05/27 02:54:01;;;;;;;2.55;1.30;;;21.50;99.90;;;;;;4208857;28;20241;-75
2022/05/27 02:56:10;;;;;;;3.25;1.40;;;21.50;99.90;;;;;;4208541;28;20236;-75
2022/05/27 02:58:13;;;;;;;2.58;1.25;;;21.50;99.90;;;;;;4207086;28;20242;-75
2022/05/27 03:00:19;;;;;;;2.35;1.10;;;21.50;99.90;;;;;;4208045;28;20268;-75
2022/05/27 03:02:22;;;;;;;3.20;1.33;;;21.40;99.90;;;;;;4207892;28;20263;-75
2022/05/27 03:04:24;;;;;;;4.90;1.40;;;21.50;99.90;;;;;;4208323;28;20214;-75
2022/05/27 03:06:38;;;;;;;2.58;1.10;;;21.50;99.90;;;;;;4208745;28;20949;-75
2022/05/27 03:08:54;;;;;;;3.58;1.30;;;21.50;99.90;;;;;;4207957;28;20255;-75
2022/05/27 03:11:08;;;;;;;3.80;1.45;;;21.40;99.90;;;;;;4206906;28;20740;-75
2022/05/27 03:13:27;;;;;;;3.22;1.23;;;21.40;99.90;;;;;;4208637;28;20237;-75
2022/05/27 03:15:37;;;;;;;2.60;1.17;;;21.40;99.90;;;;;;4209311;28;20272;-75
2022/05/27 03:17:56;;;;;;;3.47;1.42;;;21.50;99.90;;;;;;4207952;28;20227;-75
2022/05/27 03:20:12;;;;;;;2.80;1.58;;;21.40;99.90;;;;;;4208227;28;20267;-75
2022/05/27 03:22:20;;;;;;;2.72;1.27;;;21.40;99.90;;;;;;4207972;28;20276;-75
2022/05/27 03:24:36;;;;;;;2.20;1.23;;;21.50;99.90;;;;;;4208504;28;20708;-75
2022/05/27 03:26:50;;;;;;;3.22;1.25;;;21.40;99.90;;;;;;4207529;28;20222;-75
2022/05/27 03:29:00;;;;;;;2.78;1.20;;;21.40;99.90;;;;;;4207741;28;20210;-75
2022/05/27 03:31:09;;;;;;;2.35;1.00;;;21.40;99.90;;;;;;4207858;28;20221;-75
2022/05/27 03:33:19;;;;;;;3.30;1.33;;;21.40;99.90;;;;;;4207682;28;20682;-75
2022/05/27 03:35:29;;;;;;;4.18;1.35;;;21.40;99.90;;;;;;4207257;28;20303;-75
2022/05/27 03:37:38;;;;;;;2.53;1.10;;;21.40;99.90;;;;;;4208448;28;20214;-75
2022/05/27 03:39:48;;;;;;;2.30;1.27;;;21.40;99.90;;;;;;4208705;28;20222;-75
2022/05/27 03:41:55;;;;;;;2.65;1.33;;;21.40;99.90;;;;;;4208707;28;20221;-75
2022/05/27 03:43:57;;;;;;;2.78;1.30;;;21.40;99.90;;;;;;4207383;28;20284;-75
2022/05/27 03:46:01;;;;;;;3.03;1.42;;;21.40;99.90;;;;;;4208777;28;20210;-75
2022/05/27 03:48:05;;;;;;;3.58;1.45;;;21.40;99.90;;;;;;4207579;28;20251;-75
2022/05/27 03:50:11;;;;;;;2.58;1.20;;;21.40;99.90;;;;;;4206585;28;20210;-75
2022/05/27 03:52:18;;;;;;;3.05;1.30;;;21.40;99.90;;;;;;4208081;28;20269;-76
2022/05/27 03:54:21;;;;;;;1.70;1.20;;;21.40;99.90;;;;;;4208513;28;20737;-75
2022/05/27 03:56:25;;;;;;;3.88;1.30;;;21.40;99.90;;;;;;4207460;28;20289;-75
2022/05/27 03:58:27;;;;;;;4.65;1.40;;;21.40;99.90;;;;;;4207964;28;20267;-75
2022/05/27 04:00:29;;;;;;;4.07;1.63;;;21.40;99.90;;;;;;4207334;28;20260;-75
2022/05/27 04:02:32;;;;;;;2.10;1.00;;;21.40;99.90;;;;;;4207868;28;20218;-75
2022/05/27 04:04:34;;;;;;;2.45;1.30;;;21.40;99.90;;;;;;4207430;28;20210;-75
2022/05/27 04:06:37;;;;;;;2.92;1.60;;;21.40;99.90;;;;;;4208027;28;20299;-75
2022/05/27 04:08:39;;;;;;;5.93;1.40;;;21.40;99.90;;;;;;4208294;28;20260;-75
2022/05/27 04:10:42;;;;;;;2.50;1.40;;;21.30;99.90;;;;;;4207665;28;20279;-75
2022/05/27 04:12:45;;;;;;;2.90;1.33;;;21.30;99.90;;;;;;4207642;28;21719;-75
2022/05/27 04:14:50;;;;;;;3.47;1.40;;;21.40;99.90;;;;;;4207833;28;20281;-75
2022/05/27 04:17:27;;;;;;;5.53;1.73;;;21.30;99.90;;;;;;4207387;28;20640;-75
2022/05/27 04:19:16;;;;;;;4.07;1.73;;;21.40;99.90;;;;;;4207033;28;21015;-75
2022/05/27 04:21:18;;;;;;;3.53;1.50;;;21.40;99.90;;;;;;4206666;28;20311;-76
2022/05/27 04:23:21;;;;;;;3.75;1.50;;;21.40;99.90;;;;;;4207038;28;20271;-75
2022/05/27 04:25:23;;;;;;;3.30;1.30;;;21.30;99.90;;;;;;4207144;28;20593;-75
2022/05/27 04:27:27;;;;;;;3.22;1.40;;;21.30;99.90;;;;;;4208052;28;20275;-75
2022/05/27 04:29:31;;;;;;;2.42;1.45;;;21.30;99.90;;;;;;4207547;28;20263;-75
2022/05/27 04:31:33;;;;;;;3.65;1.35;;;21.40;99.90;;;;;;4207076;28;20222;-75
2022/05/27 04:33:35;;;;;;;4.50;1.58;;;21.40;99.90;;;;;;4207653;28;20272;-75
2022/05/27 04:35:38;;;;;;;2.58;1.38;;;21.30;99.90;;;;;;4204922;28;20221;-75
2022/05/27 04:37:41;;;;;;;3.28;1.40;;;21.30;99.90;;;;;;4207801;28;20284;-75
2022/05/27 04:39:43;;;;;;;3.38;1.50;;;21.30;99.90;;;;;;4207205;28;20218;-75
2022/05/27 04:41:46;;;;;;;2.33;1.35;;;21.40;99.90;;;;;;4207956;28;20591;-75
2022/05/27 04:43:48;;;;;;;3.08;1.40;;;21.40;99.90;;;;;;4208162;28;20214;-75
2022/05/27 04:45:52;;;;;;;4.65;1.50;;;21.30;99.90;;;;;;4207706;28;20223;-75
2022/05/27 04:47:54;;;;;;;3.33;1.65;;;21.30;99.90;;;;;;4207833;28;20267;-75
2022/05/27 04:49:58;;;;;;;3.28;1.30;;;21.40;99.90;;;;;;4209669;28;20236;-75
2022/05/27 04:52:01;;;;;;;2.67;1.60;;;21.30;99.90;;;;;;4209724;28;20667;-75
2022/05/27 04:54:04;;;;;;;4.10;1.35;;;21.30;99.90;;;;;;4210499;28;20242;-75
2022/05/27 04:56:09;;;;;;;4.13;1.65;;;21.30;99.90;;;;;;4208689;28;20719;-75
2022/05/27 04:58:29;;;;;;;3.72;1.60;;;21.40;99.90;;;;;;4211507;28;20264;-75
2022/05/27 05:00:35;;;;;;;3.83;1.50;;;21.30;99.90;;;;;;4211867;28;20202;-75
2022/05/27 05:02:38;;;;;;;4.32;1.30;;;21.30;99.90;;;;;;4210602;28;20207;-75
2022/05/27 05:04:41;;;;;;;3.92;1.60;;;21.30;99.90;;;;;;4211440;28;20214;-75
2022/05/27 05:06:44;;;;;;;3.00;1.38;;;21.30;99.90;;;;;;4211480;28;20234;-75
2022/05/27 05:08:46;;;;;;;3.65;1.67;;;21.30;99.90;;;;;;4210409;28;20259;-75
2022/05/27 05:10:48;;;;;;;3.08;1.40;;;21.40;99.90;;;;;;4211293;28;20663;-75
2022/05/27 05:12:51;;;;;;;3.63;1.42;;;21.30;99.90;;;;;;4209939;28;20211;-75
2022/05/27 05:14:54;;;;;;;2.92;1.42;;;21.30;99.90;;;;;;4211121;28;20238;-75
2022/05/27 05:16:56;;;;;;;3.47;1.42;;;21.30;99.90;;;;;;4210958;28;20230;-75
2022/05/27 05:19:00;;;;;;;4.88;1.55;;;21.30;99.90;;;;;;4210889;28;20260;-75
2022/05/27 05:21:02;;;;;;;3.13;1.45;;;21.30;99.90;;;;;;4211203;28;20279;-75
2022/05/27 05:23:05;;;;;;;4.18;1.55;;;21.30;99.90;;;;;;4210861;28;20750;-75
2022/05/27 05:25:09;;;;;;;4.50;1.40;;;21.30;99.90;;;;;;4211306;28;20650;-75
2022/05/27 05:27:11;;;;;;;3.60;1.40;;;21.40;99.90;;;;;;4209630;28;20218;-75
2022/05/27 05:29:14;;;;;;;2.97;1.30;;;21.30;99.90;;;;;;4211011;28;20807;-75
2022/05/27 05:31:17;;;;;;;3.33;1.48;;;21.40;99.90;;;;;;4209720;28;20940;-75
2022/05/27 05:33:19;;;;;;;3.38;1.40;;;21.30;99.90;;;;;;4209594;28;20280;-75
2022/05/27 05:35:23;;;;;;;4.55;1.42;;;21.30;99.90;;;;;;4208866;28;20238;-75
2022/05/27 05:37:25;;;;;;;4.38;1.38;;;21.30;99.90;;;;;;4211181;28;20732;-75
2022/05/27 05:39:28;;;;;;;2.40;1.42;;;21.40;99.90;;;;;;4210995;28;20214;-75
2022/05/27 05:41:32;;;;;;;4.00;1.65;;;21.30;99.90;;;;;;4210987;28;20223;-75
2022/05/27 05:43:35;;;;;;;3.63;1.38;;;21.30;99.90;;;;;;4209382;28;20638;-75
2022/05/27 05:45:37;;;;;;;4.93;1.45;;;21.30;99.90;;;;;;4210922;28;20219;-75
2022/05/27 05:47:39;;;;;;;2.40;1.60;;;21.30;99.90;;;;;;4209807;28;20283;-75
2022/05/27 05:49:42;;;;;;;4.88;1.80;;;21.30;99.90;;;;;;4209423;28;20260;-75
2022/05/27 05:51:45;;;;;;;3.38;1.42;;;21.30;99.90;;;;;;4210637;28;20275;-75
2022/05/27 05:53:48;;;;;;;3.70;1.58;;;21.30;99.90;;;;;;4209528;28;20215;-75
2022/05/27 05:55:51;;;;;;;4.00;1.58;;;21.30;99.90;;;;;;4208795;28;20231;-75
2022/05/27 05:57:54;;;;;;;2.83;1.40;;;21.30;99.90;;;;;;4211519;28;20472;-75
2022/05/27 05:59:56;;;;;;;2.83;1.20;;;21.30;99.90;;;;;;4209470;28;20223;-75
2022/05/27 06:01:59;;;;;;;4.03;1.70;;;21.30;99.90;;;;;;4210189;28;20218;-75
2022/05/27 06:04:01;;;;;;;3.95;1.65;;;21.30;99.90;;;;;;4209413;28;20214;-75
2022/05/27 06:06:04;;;;;;;3.97;1.67;;;21.30;99.90;;;;;;4209891;28;20295;-75
2022/05/27 06:08:08;;;;;;;3.25;1.40;;;21.30;99.90;;;;;;4210810;28;20718;-75
2022/05/27 06:10:12;;;;;;;5.47;1.92;;;21.30;99.90;;;;;;4210530;28;20263;-75
2022/05/27 06:12:15;;;;;;;3.95;1.45;;;21.30;99.90;;;;;;4209421;28;20219;-75
2022/05/27 06:14:17;;;;;;;4.65;1.58;;;21.40;99.90;;;;;;4209767;28;20223;-75
2022/05/27 06:16:20;;;;;;;4.43;1.83;;;21.30;99.90;;;;;;4209464;28;20218;-75
2022/05/27 06:18:22;;;;;;;3.92;1.35;;;21.30;99.90;;;;;;4208602;28;20233;-75
2022/05/27 06:20:24;;;;;;;4.47;1.70;;;21.30;99.90;;;;;;4209378;28;20210;-75
2022/05/27 06:22:27;;;;;;;2.53;1.40;;;21.30;99.90;;;;;;4208673;28;20943;-75
2022/05/27 06:24:31;;;;;;;4.32;1.80;;;21.40;99.90;;;;;;4209100;28;20206;-75
2022/05/27 06:26:33;;;;;;;3.03;1.40;;;21.40;99.90;;;;;;4209574;28;20666;-75
2022/05/27 06:35:36;;;;;;;2.55;1.70;;;21.40;99.90;;;;;;4209772;28;20214;-75
2022/05/27 06:37:38;;;;;;;4.00;1.60;;;21.40;99.90;;;;;;4207560;28;20237;-75
2022/05/27 06:39:42;;;;;;;3.08;1.48;;;21.40;99.90;;;;;;4209652;28;20210;-75
2022/05/27 06:41:44;;;;;;;3.72;1.67;;;21.50;99.90;;;;;;4209749;28;20265;-75
2022/05/27 06:43:47;;;;;;;2.90;1.45;;;21.50;99.90;;;;;;4209888;28;20214;-75
2022/05/27 06:45:49;;;;;;;3.30;1.65;;;21.50;99.90;;;;;;4209580;28;20215;-75
2022/05/27 06:47:52;;;;;;;3.10;1.20;;;21.50;99.90;;;;;;4209404;28;20724;-75
2022/05/27 06:49:54;;;;;;;3.97;1.80;;;21.50;99.90;;;;;;4207268;28;20312;-75
2022/05/27 06:51:56;;;;;;;4.10;1.50;;;21.50;99.90;;;;;;4208135;28;20267;-75
2022/05/27 06:53:59;;;;;;;3.67;1.50;;;21.50;99.90;;;;;;4206771;28;20334;-75
2022/05/27 06:56:02;;;;;;;4.43;1.70;;;21.50;99.90;;;;;;4208960;28;20319;-75
2022/05/27 06:58:05;;;;;;;4.32;1.70;;;21.60;99.90;;;;;;4209262;28;20630;-75
2022/05/27 07:00:11;;;;;;;2.65;1.50;;;21.60;99.90;;;;;;4209596;28;20222;-75
2022/05/27 07:02:13;;;;;;;4.18;1.73;;;21.60;99.90;;;;;;4209037;28;20260;-75
2022/05/27 07:04:17;;;;;;;3.45;1.50;;;21.60;99.90;;;;;;4209056;28;20233;-75
2022/05/27 07:06:20;;;;;;;3.72;1.58;;;21.60;99.90;;;;;;4209136;28;20287;-75
2022/05/27 07:08:22;;;;;;;5.05;2.03;;;21.60;99.90;;;;;;4208576;28;20716;-75
2022/05/27 07:10:25;;;;;;;4.82;1.88;;;21.60;99.90;;;;;;4208866;28;21295;-75
2022/05/27 07:12:28;;;;;;;3.05;1.50;;;21.60;99.90;;;;;;4208439;28;20275;-75
2022/05/27 07:14:31;;;;;;;4.85;1.90;;;21.60;99.90;;;;;;4209000;28;20218;-75
2022/05/27 07:16:33;;;;;;;4.72;2.00;;;21.60;99.90;;;;;;4208829;28;20281;-75
2022/05/27 07:18:36;;;;;;;2.35;1.70;;;21.60;99.90;;;;;;4208938;28;20218;-77
2022/05/27 07:20:40;;;;;;;3.97;1.60;;;21.70;99.90;;;;;;4208761;28;21368;-75
2022/05/27 07:22:43;;;;;;;3.35;1.65;;;21.60;99.90;;;;;;4208340;28;20268;-75
2022/05/27 07:24:45;;;;;;;4.10;1.80;;;21.70;99.90;;;;;;4207591;28;21128;-75
2022/05/27 07:26:48;;;;;;;3.60;1.98;;;21.70;99.90;;;;;;4207076;28;20211;-75
2022/05/27 07:28:51;;;;;;;4.95;1.80;;;21.70;99.90;;;;;;4209099;28;20607;-75
2022/05/27 07:30:55;;;;;;;2.92;1.80;;;21.70;99.90;;;;;;4209422;28;20214;-75
2022/05/27 07:32:57;;;;;;;3.50;1.88;;;21.70;99.90;;;;;;4209536;28;20731;-75
2022/05/27 07:35:00;;;;;;;3.42;1.92;;;21.70;99.90;;;;;;4209315;28;20226;-75
2022/05/27 07:37:02;;;;;;;4.43;1.70;;;21.70;99.90;;;;;;4209454;28;20219;-75
2022/05/27 07:39:05;;;;;;;8.57;2.17;;;21.70;99.90;;;;;;4209690;28;20230;-77
2022/05/27 07:41:07;;;;;;;5.75;2.33;;;21.80;99.90;;;;;;4209167;28;20264;-75
2022/05/27 07:43:10;;;;;;;3.72;1.70;;;21.80;99.90;;;;;;4206908;28;20260;-75
2022/05/27 07:45:17;;;;;;;4.45;1.77;;;21.80;99.90;;;;;;4209533;28;21564;-75
2022/05/27 07:47:19;;;;;;;7.15;2.30;;;21.80;99.90;;;;;;4209184;28;20276;-75
2022/05/27 07:49:22;;;;;;;5.68;2.47;;;21.80;99.90;;;;;;4207763;28;20265;-75
2022/05/27 07:51:25;;;;;;;8.07;2.95;;;21.80;99.90;;;;;;4207685;28;20282;-75
2022/05/27 07:53:27;;;;;;;9.02;2.72;;;21.80;99.90;;;;;;4208486;28;20272;-75
2022/05/27 07:55:29;;;;;;;13.20;3.00;;;21.80;99.90;;;;;;4209493;28;20218;-75
2022/05/27 07:57:32;;;;;;;8.50;2.53;;;21.80;99.90;;;;;;4208944;28;20311;-75
2022/05/27 07:59:34;;;;;;;8.57;2.72;;;21.80;99.90;;;;;;4207882;28;20222;-75
2022/05/27 08:01:39;;;;;;;11.65;2.42;;;21.80;99.90;;;;;;4209335;28;20655;-75
2022/05/27 08:03:42;;;;;;;7.20;2.35;;;21.80;99.90;;;;;;4207948;28;20321;-75
2022/05/27 08:05:44;;;;;;;7.05;2.58;;;21.80;99.90;;;;;;4208161;28;20271;-75
2022/05/27 08:07:47;;;;;;;13.55;3.50;;;21.80;99.90;;;;;;4209243;28;20222;-75
2022/05/27 08:09:50;;;;;;;8.02;2.72;;;21.80;99.90;;;;;;4209042;28;20287;-75
2022/05/27 08:11:52;;;;;;;6.15;2.50;;;21.80;99.90;;;;;;4208083;28;20271;-75
2022/05/27 08:13:55;;;;;;;6.05;2.42;;;21.80;99.90;;;;;;4207392;28;20275;-75
2022/05/27 08:15:58;;;;;;;3.13;1.73;;;21.80;99.90;;;;;;4205913;28;20702;-75
2022/05/27 08:18:02;;;;;;;4.60;1.80;;;21.80;99.90;;;;;;4208396;28;20666;-75
2022/05/27 08:20:06;;;;;;;3.35;1.65;;;21.80;99.90;;;;;;4206835;28;20263;-75
2022/05/27 08:22:08;;;;;;;5.13;2.10;;;21.90;99.90;;;;;;4210122;28;20222;-75
2022/05/27 08:24:10;;;;;;;3.40;1.58;;;21.80;99.90;;;;;;4212284;28;20222;-75
2022/05/27 08:26:13;;;;;;;6.25;1.65;;;21.90;99.90;;;;;;4211129;28;20206;-75
2022/05/27 08:28:15;;;;;;;3.83;1.83;;;21.80;99.90;;;;;;4211677;28;20279;-75
2022/05/27 08:30:24;;;;;;;3.70;1.95;;;21.80;99.90;;;;;;4212116;28;20218;-75
2022/05/27 08:32:26;;;;;;;7.20;1.98;;;21.80;99.90;;;;;;4210010;28;20267;-75
2022/05/27 08:39:12;;;;;;;2.53;1.42;;;21.90;99.90;;;;;;4216701;28;20202;-75
2022/05/27 08:41:39;;;;;;;4.70;1.85;;;21.90;99.90;;;;;;4211387;28;20218;-77
2022/05/27 08:43:51;;;;;;;4.90;1.70;;;21.90;99.90;;;;;;4200428;28;20787;-77
2022/05/27 08:46:02;;;;;;;4.82;2.20;;;21.90;99.90;;;;;;4211750;28;20214;-77
2022/05/27 08:48:08;;;;;;;6.72;2.03;;;21.90;99.90;;;;;;4210943;28;20287;-76
2022/05/27 08:50:17;;;;;;;3.00;1.80;;;21.90;99.90;;;;;;4208071;28;20218;-77
2022/05/27 08:52:24;;;;;;;8.75;1.80;;;21.90;99.90;;;;;;4210654;28;20255;-77
2022/05/27 08:54:34;;;;;;;2.70;1.65;;;22.00;99.90;;;;;;4209548;28;20270;-77
2022/05/27 09:01:23;;;;;;;5.65;1.88;;;22.00;99.90;;;;;;4211196;28;20594;-77
2022/05/27 09:03:28;;;;;;;5.30;2.20;;;22.00;99.90;;;;;;4210151;28;20268;-77
2022/05/27 09:05:37;;;;;;;5.15;1.80;;;22.00;99.90;;;;;;4207405;28;20291;-76
2022/05/27 09:07:47;;;;;;;3.92;1.63;;;22.00;99.90;;;;;;4210426;28;20956;-77
2022/05/27 09:09:51;;;;;;;3.75;1.58;;;22.00;99.90;;;;;;4210812;28;20219;-77
2022/05/27 09:12:19;;;;;;;4.30;2.00;;;22.00;99.90;;;;;;4209352;28;20223;-77
2022/05/27 09:14:25;;;;;;;3.15;1.85;;;22.00;99.90;;;;;;4210757;28;20622;-77
2022/05/27 09:16:38;;;;;;;5.10;1.90;;;22.00;99.90;;;;;;4208952;28;20327;-77
2022/05/27 09:18:49;;;;;;;4.93;1.80;;;22.00;99.90;;;;;;4210771;28;20271;-77
2022/05/27 09:21:08;;;;;;;2.80;1.65;;;22.00;99.90;;;;;;4210301;28;20614;-77
2022/05/27 09:23:25;;;;;;;3.83;1.65;;;22.10;99.90;;;;;;4210989;28;20221;-77
2022/05/27 09:25:35;;;;;;;4.35;1.77;;;22.10;99.90;;;;;;4209609;28;20214;-77
2022/05/27 09:27:47;;;;;;;2.80;1.52;;;22.10;99.90;;;;;;4210867;28;20268;-77
2022/05/27 09:29:56;;;;;;;3.55;1.58;;;22.10;99.90;;;;;;4210916;28;20251;-77
2022/05/27 09:32:06;;;;;;;3.85;1.60;;;22.10;99.90;;;;;;4211336;28;20692;-77
2022/05/27 09:34:11;;;;;;;2.42;1.48;;;22.10;99.90;;;;;;4209497;28;20221;-77
2022/05/27 09:36:19;;;;;;;4.43;1.73;;;22.10;99.90;;;;;;4210700;28;20215;-77
2022/05/27 09:38:24;;;;;;;5.50;1.85;;;22.10;99.90;;;;;;4210210;28;20206;-77
2022/05/27 09:40:32;;;;;;;3.92;1.50;;;22.10;99.90;;;;;;4210340;28;20264;-77
2022/05/27 09:42:42;;;;;;;4.07;1.95;;;22.10;99.90;;;;;;4209382;28;20214;-77
2022/05/27 09:44:50;;;;;;;3.55;1.58;;;22.00;99.90;;;;;;4210869;28;20210;-77
2022/05/27 09:46:52;;;;;;;3.70;1.80;;;22.00;99.90;;;;;;4211044;28;20222;-75
2022/05/27 09:48:57;;;;;;;3.08;1.83;;;22.10;99.90;;;;;;4209638;28;20218;-75
2022/05/27 09:51:02;;;;;;;4.28;1.55;;;22.10;99.90;;;;;;4208664;28;20214;-75
2022/05/27 09:53:07;;;;;;;4.07;1.58;;;22.10;99.90;;;;;;4209950;28;20271;-75
2022/05/27 09:55:20;;;;;;;3.22;1.58;;;22.10;99.90;;;;;;4210353;28;20614;-75
2022/05/27 09:57:25;;;;;;;4.93;1.63;;;22.10;99.90;;;;;;4209443;28;20238;-75
2022/05/27 09:59:35;;;;;;;2.30;1.52;;;22.10;99.90;;;;;;4210512;28;20315;-75
2022/05/27 10:01:38;;;;;;;3.53;1.60;;;22.10;99.90;;;;;;4208536;28;20227;-76
2022/05/27 10:03:40;;;;;;;3.28;1.40;;;22.10;99.90;;;;;;4210208;28;20268;-77
2022/05/27 10:05:42;;;;;;;4.07;1.65;;;22.10;99.90;;;;;;4209793;28;20226;-77
2022/05/27 10:07:51;;;;;;;3.13;1.83;;;22.10;99.90;;;;;;4210381;28;20207;-77
2022/05/27 10:09:55;;;;;;;2.90;1.55;;;22.10;99.90;;;;;;4209778;28;20218;-77
2022/05/27 10:11:59;;;;;;;2.97;1.50;;;22.10;99.90;;;;;;4209822;28;20271;-77
2022/05/27 10:14:20;;;;;;;5.78;1.80;;;22.10;99.90;;;;;;4209543;28;20215;-77
2022/05/27 10:16:25;;;;;;;4.18;1.80;;;22.10;99.90;;;;;;4210143;28;20215;-77
2022/05/27 10:18:27;;;;;;;3.90;1.83;;;22.10;99.90;;;;;;4209066;28;20272;-77
2022/05/27 10:20:34;;;;;;;2.90;1.60;;;22.10;99.90;;;;;;4209975;28;20275;-77
2022/05/27 10:22:36;;;;;;;2.97;1.50;;;22.10;99.90;;;;;;4210177;28;20219;-77
2022/05/27 10:24:41;;;;;;;3.33;1.52;;;22.10;99.90;;;;;;4210146;28;20248;-77
2022/05/27 10:26:45;;;;;;;3.97;1.60;;;22.10;99.90;;;;;;4209769;28;20609;-77
2022/05/27 10:29:01;;;;;;;3.72;1.55;;;22.10;99.90;;;;;;4210123;28;20210;-77
2022/05/27 10:31:14;;;;;;;3.47;1.40;;;22.10;99.90;;;;;;4209826;28;20214;-77
2022/05/27 10:33:19;;;;;;;3.67;1.65;;;22.10;99.90;;;;;;4208470;28;20283;-77
2022/05/27 10:35:34;;;;;;;4.78;1.75;;;22.10;99.90;;;;;;4208804;28;20287;-77
2022/05/27 10:37:53;;;;;;;4.07;1.52;;;22.10;99.90;;;;;;4209140;28;20251;-77
2022/05/27 10:40:06;;;;;;;2.90;1.63;;;22.10;99.90;;;;;;4208813;28;20275;-78
2022/05/27 10:42:29;;;;;;;3.67;1.63;;;22.10;99.90;;;;;;4209134;28;20583;-77
2022/05/27 10:44:40;;;;;;;3.47;1.35;;;22.10;99.90;;;;;;4209272;28;20956;-77
2022/05/27 10:46:52;;;;;;;3.50;1.60;;;22.20;99.90;;;;;;4207342;28;20222;-77
2022/05/27 10:49:21;;;;;;;4.22;1.70;;;22.10;99.90;;;;;;4206355;28;20214;-76
2022/05/27 10:51:38;;;;;;;3.60;1.90;;;22.10;99.90;;;;;;4209186;28;20292;-77
2022/05/27 10:53:54;;;;;;;3.90;1.38;;;22.20;99.90;;;;;;4207671;28;20713;-77
2022/05/27 10:56:10;;;;;;;3.75;1.63;;;22.20;99.90;;;;;;4208993;28;21290;-77
2022/05/27 11:03:39;;;;;;;5.30;1.50;;;22.20;99.90;;;;;;4209184;28;20211;-77
2022/05/27 11:05:53;;;;;;;5.07;1.70;;;22.10;99.90;;;;;;4206862;28;20246;-77
2022/05/27 11:08:17;;;;;;;4.60;1.75;;;22.20;99.90;;;;;;4208822;28;20264;-77
2022/05/27 11:10:34;;;;;;;3.70;1.63;;;22.10;99.90;;;;;;4201259;28;20218;-77
2022/05/27 11:15:28;;;;;;;4.70;1.75;;;22.10;99.90;;;;;;4209229;28;20198;-77
2022/05/27 11:17:39;;;;;;;2.38;1.27;;;22.20;99.90;;;;;;4209382;28;20242;-77
2022/05/27 11:20:08;;;;;;;2.78;1.50;;;22.20;99.90;;;;;;4209177;28;20210;-77
2022/05/27 11:22:22;;;;;;;2.20;1.35;;;22.20;99.90;;;;;;4209401;28;21441;-77
2022/05/27 11:24:45;;;;;;;3.72;1.48;;;22.20;99.90;;;;;;4208849;28;20210;-77
2022/05/27 11:26:57;;;;;;;3.40;1.30;;;22.20;99.90;;;;;;4208517;28;20294;-76